Pagrindinis puslapis
METAR-TAF:

METAR-TAF

Oro uostai :

Masjed-Soleyman, Iranas

platuma: 31-59N, ilguma: 049-16E, Aukštis: 372 m

Dabartinis oras

Ataskaita buvo paskelbta 50 minutes, ne 08:00 UTC
Vėjas 2 kt iš Pietryčių
Temperatūra 35°C
Drėgmė 11%
Slėgis 1014 hPa
Matomumas 10 km arba daugiau
Išsisklaidę debesys ne aukštis 4000 ft
Su prošvaistėmis ne aukštis 10000 ft

METAR: OIAI 180800Z 13002KT 9999 SCT040 BKN100 35/M00 Q1014

Laikas: 12:20 (08:50 UTC)


TAF: trūkstamas

Orai ataskaitas ir orų prognozės (METAR, TAF).

turimą stotys yra geltonos ir raudonos taškus žemėlapyje.

Perkelti pele per norėdami pamatyti stoties vardą.

Tada spustelėkite, norėdami matyti oro stebėjimo ir prognozės.

Norėdami pakeisti žemėlapį: spustelėkite ant žalios mygtukų su juodo kryžiaus žemyn,; žalią mygtuką su brūkšneliu, jei norite nutolinti; arba žalių rodyklių gretimoms žemėlapius.


METAR-TAF: